Time;durP1;ratioP1;P1;durP2;ratioP2;P2;SDS_P1;SDS_P2;PMS_P1;PMS_P2;Temp;Humidity;BMP_temperature;BMP_pressure;BME280_temperature;BME280_humidity;BME280_pressure;Samples;Min_cycle;Max_cycle;Signal;HPM_P1;HPM_P2
2021/08/11 00:00:41;;;;;;;12.67;9.10;;;17.50;98.50;;;;;;5000126;28;20168;-86
2021/08/11 00:03:07;;;;;;;13.60;10.30;;;17.50;98.60;;;;;;4997856;28;20210;-85
2021/08/11 00:05:32;;;;;;;13.73;10.57;;;17.40;98.60;;;;;;4999805;28;20278;-84
2021/08/11 00:07:58;;;;;;;16.60;9.13;;;17.40;98.70;;;;;;4998763;28;20207;-85
2021/08/11 00:10:23;;;;;;;9.83;8.03;;;17.40;98.70;;;;;;4998604;28;20222;-84
2021/08/11 00:12:49;;;;;;;12.57;8.30;;;17.40;98.90;;;;;;4998812;28;20775;-86
2021/08/11 00:15:14;;;;;;;10.80;8.07;;;17.40;98.60;;;;;;4998465;28;20167;-86
2021/08/11 00:17:40;;;;;;;11.50;8.60;;;17.30;98.60;;;;;;5000045;28;20252;-85
2021/08/11 00:20:07;;;;;;;13.10;9.67;;;17.30;98.60;;;;;;4999194;28;20172;-85
2021/08/11 00:22:33;;;;;;;13.43;9.80;;;17.30;98.60;;;;;;4999322;28;20254;-85
2021/08/11 00:24:58;;;;;;;13.13;9.60;;;17.30;98.70;;;;;;4998764;28;20996;-86
2021/08/11 00:27:24;;;;;;;11.33;9.43;;;17.20;98.70;;;;;;4998017;28;20174;-85
2021/08/11 00:29:49;;;;;;;19.30;10.40;;;17.20;98.90;;;;;;4998916;28;20553;-85
2021/08/11 00:32:15;;;;;;;14.73;10.03;;;17.20;99.00;;;;;;4999303;28;20702;-85
2021/08/11 00:34:42;;;;;;;12.83;9.70;;;17.20;99.10;;;;;;4997794;28;20171;-85
2021/08/11 00:37:08;;;;;;;12.50;9.07;;;17.20;99.20;;;;;;4997546;28;20426;-86
2021/08/11 00:39:39;;;;;;;12.80;9.00;;;17.20;99.30;;;;;;4997328;28;20188;-86
2021/08/11 00:42:08;;;;;;;11.97;9.23;;;17.20;99.40;;;;;;4996964;28;20451;-85
2021/08/11 00:44:33;;;;;;;14.40;9.03;;;17.10;99.30;;;;;;4997046;28;20415;-87
2021/08/11 00:47:00;;;;;;;13.87;9.67;;;17.10;99.30;;;;;;5001018;28;20214;-85
2021/08/11 00:49:26;;;;;;;11.97;9.00;;;17.10;99.40;;;;;;5000309;28;20431;-86
2021/08/11 00:51:54;;;;;;;12.93;8.80;;;17.10;99.30;;;;;;4998191;28;20164;-86
2021/08/11 00:54:21;;;;;;;13.77;9.97;;;17.10;99.40;;;;;;4996988;28;20510;-86
2021/08/11 00:56:51;;;;;;;19.63;11.67;;;17.10;99.30;;;;;;4998078;28;20788;-84
2021/08/11 00:59:19;;;;;;;15.63;10.27;;;17.20;99.40;;;;;;5002599;28;20497;-84
2021/08/11 01:01:51;;;;;;;14.57;9.40;;;17.20;99.40;;;;;;5000969;28;20407;-84
2021/08/11 01:04:18;;;;;;;14.90;9.80;;;17.20;99.40;;;;;;5001274;28;20415;-85
2021/08/11 01:06:45;;;;;;;13.20;10.10;;;17.20;99.30;;;;;;5002344;28;20454;-85
2021/08/11 01:09:15;;;;;;;13.10;9.90;;;17.20;99.20;;;;;;5001777;28;20490;-85
2021/08/11 01:11:45;;;;;;;13.33;9.80;;;17.20;99.20;;;;;;5000182;28;20415;-86
2021/08/11 01:14:15;;;;;;;13.80;9.90;;;17.20;99.10;;;;;;5000928;28;20403;-86
2021/08/11 01:16:42;;;;;;;13.50;9.90;;;17.20;99.10;;;;;;5000676;28;20418;-86
2021/08/11 01:19:08;;;;;;;17.80;9.30;;;17.10;99.10;;;;;;4999776;28;20788;-85
2021/08/11 01:21:41;;;;;;;15.83;10.40;;;17.10;99.20;;;;;;5000969;28;20427;-86
2021/08/11 01:24:14;;;;;;;13.20;9.90;;;17.10;99.40;;;;;;5000344;28;20171;-85
2021/08/11 01:26:59;;;;;;;15.30;10.53;;;17.10;99.50;;;;;;5001829;28;20530;-84
2021/08/11 01:29:36;;;;;;;19.60;12.30;;;17.10;99.60;;;;;;5002136;28;20423;-86
2021/08/11 01:32:14;;;;;;;17.63;11.70;;;17.10;99.60;;;;;;5002374;28;20445;-85
2021/08/11 01:34:45;;;;;;;20.07;11.30;;;17.00;99.60;;;;;;5004827;28;20409;-85
2021/08/11 01:37:22;;;;;;;19.30;12.47;;;17.00;99.60;;;;;;5007205;28;20784;-86
2021/08/11 01:39:50;;;;;;;17.80;11.60;;;17.00;99.80;;;;;;5009120;28;20434;-85
2021/08/11 01:42:53;;;;;;;17.43;12.10;;;17.00;99.80;;;;;;5009667;28;20442;-85
2021/08/11 01:45:24;;;;;;;17.80;11.23;;;17.00;99.80;;;;;;5000487;28;20461;-84
2021/08/11 01:47:58;;;;;;;18.07;10.90;;;17.10;99.90;;;;;;5004432;28;20557;-85
2021/08/11 01:50:28;;;;;;;19.70;12.20;;;17.00;99.90;;;;;;5001510;28;20415;-85
2021/08/11 01:52:56;;;;;;;19.33;11.93;;;17.00;99.80;;;;;;5001317;28;20442;-86
2021/08/11 01:55:25;;;;;;;21.63;11.67;;;17.00;99.80;;;;;;5002361;28;20441;-84
2021/08/11 01:57:54;;;;;;;20.00;11.37;;;17.00;99.90;;;;;;5008863;28;20407;-86
2021/08/11 02:00:27;;;;;;;21.77;11.53;;;17.00;99.90;;;;;;5007553;28;20446;-85
2021/08/11 02:02:53;;;;;;;18.70;12.30;;;17.00;99.80;;;;;;5006379;28;20442;-85
2021/08/11 02:05:24;;;;;;;17.50;10.80;;;17.00;99.70;;;;;;5005116;28;20203;-85
2021/08/11 02:07:51;;;;;;;29.93;11.23;;;17.00;99.70;;;;;;5002997;28;20411;-85
2021/08/11 02:10:19;;;;;;;17.03;10.33;;;17.00;99.60;;;;;;5004587;28;20426;-85
2021/08/11 02:12:46;;;;;;;17.80;10.87;;;16.90;99.60;;;;;;5003128;28;20415;-85
2021/08/11 02:15:13;;;;;;;21.20;9.90;;;16.90;99.80;;;;;;4999279;28;20407;-85
2021/08/11 02:17:40;;;;;;;15.30;10.27;;;16.90;99.90;;;;;;4999377;28;20423;-86
2021/08/11 02:20:09;;;;;;;17.50;11.00;;;16.80;99.90;;;;;;4999903;28;20422;-85
2021/08/11 02:22:35;;;;;;;19.00;11.97;;;16.80;99.90;;;;;;4999235;28;20435;-85
2021/08/11 02:25:03;;;;;;;15.93;10.40;;;16.80;99.90;;;;;;5000704;28;20658;-85
2021/08/11 02:27:35;;;;;;;17.50;10.97;;;16.80;99.90;;;;;;4998467;28;20429;-85
2021/08/11 02:30:09;;;;;;;20.60;11.63;;;16.80;99.90;;;;;;4998860;28;20418;-85
2021/08/11 02:32:59;;;;;;;20.70;13.00;;;16.80;99.90;;;;;;4998191;28;20458;-85
2021/08/11 02:35:32;;;;;;;17.30;11.90;;;16.80;99.90;;;;;;4999845;28;20418;-85
2021/08/11 02:38:22;;;;;;;19.40;11.93;;;16.70;99.90;;;;;;4998137;28;20415;-86
2021/08/11 02:41:07;;;;;;;23.53;13.53;;;16.70;99.90;;;;;;4998933;28;20427;-86
2021/08/11 02:43:37;;;;;;;23.50;13.23;;;16.80;99.90;;;;;;5000835;28;20442;-86
2021/08/11 02:46:17;;;;;;;25.63;15.80;;;16.80;99.90;;;;;;5000499;28;20479;-86
2021/08/11 02:48:52;;;;;;;26.63;15.00;;;16.80;99.90;;;;;;5000745;28;20411;-85
2021/08/11 02:51:18;;;;;;;24.20;14.13;;;16.80;99.90;;;;;;4999606;28;20884;-85
2021/08/11 02:53:45;;;;;;;28.27;15.53;;;16.90;99.90;;;;;;4999513;28;20466;-86
2021/08/11 02:56:13;;;;;;;28.90;16.33;;;16.90;99.90;;;;;;5000214;28;20761;-85
2021/08/11 02:58:41;;;;;;;32.20;17.20;;;16.80;99.90;;;;;;4999794;28;20418;-87
2021/08/11 03:01:07;;;;;;;28.80;17.10;;;16.80;99.90;;;;;;4999297;28;20423;-87
2021/08/11 03:03:33;;;;;;;29.73;18.70;;;16.80;99.90;;;;;;4999575;28;20649;-85
2021/08/11 03:05:58;;;;;;;27.30;16.00;;;16.80;99.90;;;;;;4999662;28;20777;-85
2021/08/11 03:08:27;;;;;;;23.10;15.50;;;16.80;99.90;;;;;;5000745;28;20877;-85
2021/08/11 03:10:52;;;;;;;29.60;17.73;;;16.80;99.90;;;;;;4998992;28;20172;-84
2021/08/11 03:13:20;;;;;;;25.90;16.63;;;16.80;99.90;;;;;;4999423;28;20442;-85
2021/08/11 03:15:47;;;;;;;29.40;17.23;;;16.90;99.90;;;;;;4999085;28;20180;-87
2021/08/11 03:18:16;;;;;;;24.13;16.57;;;16.90;99.90;;;;;;5000348;28;20413;-85
2021/08/11 03:20:42;;;;;;;28.40;16.80;;;16.90;99.90;;;;;;4997795;28;20442;-86
2021/08/11 03:23:13;;;;;;;29.87;18.40;;;16.90;99.90;;;;;;4997117;28;20443;-84
2021/08/11 03:25:40;;;;;;;24.53;16.10;;;16.90;99.90;;;;;;4997939;28;20438;-83
2021/08/11 03:28:06;;;;;;;42.20;19.83;;;16.90;99.90;;;;;;4997481;28;20506;-84
2021/08/11 03:30:36;;;;;;;27.37;16.60;;;16.90;99.90;;;;;;4997438;28;20407;-86
2021/08/11 03:33:03;;;;;;;29.80;18.90;;;16.90;99.90;;;;;;4996621;28;20430;-83
2021/08/11 03:35:29;;;;;;;25.27;17.03;;;16.90;99.90;;;;;;4999598;28;20422;-84
2021/08/11 03:37:55;;;;;;;25.30;16.67;;;17.00;99.90;;;;;;4998694;28;20411;-84
2021/08/11 03:40:21;;;;;;;27.57;17.43;;;17.00;99.80;;;;;;4999636;28;20220;-84
2021/08/11 03:42:47;;;;;;;26.07;16.47;;;17.00;99.80;;;;;;5001220;28;20298;-84
2021/08/11 03:45:14;;;;;;;27.40;15.53;;;17.00;99.70;;;;;;4984865;28;20415;-84
2021/08/11 03:47:41;;;;;;;26.10;17.37;;;17.00;99.60;;;;;;4998794;28;20411;-84
2021/08/11 03:50:12;;;;;;;28.77;15.63;;;17.00;99.70;;;;;;4997601;28;20171;-84
2021/08/11 03:52:40;;;;;;;22.87;16.53;;;17.00;99.70;;;;;;4997157;28;20459;-84
2021/08/11 03:55:06;;;;;;;23.50;17.27;;;17.00;99.60;;;;;;4998247;28;20404;-84
2021/08/11 03:57:32;;;;;;;22.47;15.00;;;17.00;99.60;;;;;;4997205;28;20398;-84
2021/08/11 04:00:03;;;;;;;24.83;17.07;;;17.00;99.50;;;;;;4997388;28;20761;-85
2021/08/11 04:02:30;;;;;;;28.17;17.33;;;17.00;99.50;;;;;;4993721;28;20418;-83
2021/08/11 04:04:55;;;;;;;22.27;15.30;;;17.00;99.40;;;;;;4996163;28;20866;-84
2021/08/11 04:07:21;;;;;;;22.80;16.10;;;17.00;99.40;;;;;;4996319;28;20180;-86
2021/08/11 04:09:47;;;;;;;20.80;14.00;;;17.00;99.20;;;;;;4997452;28;20254;-85
2021/08/11 04:12:12;;;;;;;19.77;14.27;;;16.90;98.90;;;;;;4997811;28;20724;-84
2021/08/11 04:14:38;;;;;;;18.10;13.07;;;16.90;99.10;;;;;;4997867;28;20164;-86
2021/08/11 04:17:03;;;;;;;22.27;14.87;;;16.90;99.10;;;;;;4998121;28;20194;-86
2021/08/11 04:19:29;;;;;;;19.20;12.33;;;16.90;98.90;;;;;;4997979;28;20506;-85
2021/08/11 04:21:55;;;;;;;17.23;12.47;;;16.80;99.10;;;;;;4998566;28;20176;-86
2021/08/11 04:24:20;;;;;;;18.23;14.73;;;16.80;99.20;;;;;;4998681;28;20394;-86
2021/08/11 04:26:46;;;;;;;20.37;13.70;;;16.80;99.20;;;;;;5001612;28;20207;-87
2021/08/11 04:29:11;;;;;;;19.40;13.23;;;16.80;99.20;;;;;;5011108;28;20176;-86
2021/08/11 04:31:37;;;;;;;20.40;14.07;;;16.70;99.10;;;;;;5010987;28;20176;-85
2021/08/11 04:34:03;;;;;;;25.97;14.60;;;16.70;99.20;;;;;;5011266;28;20159;-85
2021/08/11 04:36:28;;;;;;;22.40;14.70;;;16.70;99.30;;;;;;5010328;28;20195;-85
2021/08/11 04:38:54;;;;;;;23.13;12.27;;;16.70;99.30;;;;;;5003067;28;20195;-84
2021/08/11 04:41:20;;;;;;;20.23;14.20;;;16.70;99.20;;;;;;5000285;28;20649;-84
2021/08/11 04:43:45;;;;;;;24.80;16.43;;;16.70;99.00;;;;;;5000195;28;20306;-84
2021/08/11 04:46:11;;;;;;;22.57;15.73;;;16.70;99.00;;;;;;5000130;28;20192;-84
2021/08/11 04:48:36;;;;;;;24.13;13.07;;;16.70;99.10;;;;;;4999274;28;20633;-85
2021/08/11 04:51:03;;;;;;;20.23;13.43;;;16.60;98.90;;;;;;4999785;28;20802;-84
2021/08/11 04:53:29;;;;;;;19.90;13.50;;;16.60;98.90;;;;;;5000645;28;20254;-85
2021/08/11 04:55:54;;;;;;;26.70;14.40;;;16.60;98.80;;;;;;5001191;28;20415;-84
2021/08/11 04:58:20;;;;;;;24.70;16.23;;;16.50;98.90;;;;;;5004071;28;20168;-84
2021/08/11 05:00:45;;;;;;;26.57;16.53;;;16.50;99.10;;;;;;5000202;28;20202;-84
2021/08/11 05:03:11;;;;;;;24.10;16.27;;;16.60;99.10;;;;;;5005400;28;20207;-84
2021/08/11 05:05:40;;;;;;;24.53;15.67;;;16.60;99.00;;;;;;5006268;28;20214;-84
2021/08/11 05:08:05;;;;;;;23.70;13.70;;;16.60;98.90;;;;;;5004541;28;20172;-84
2021/08/11 05:10:31;;;;;;;22.50;14.30;;;16.60;98.60;;;;;;5003231;28;20423;-84
2021/08/11 05:12:56;;;;;;;31.17;15.17;;;16.60;98.50;;;;;;5003843;28;20242;-84
2021/08/11 05:15:22;;;;;;;23.60;16.20;;;16.60;98.40;;;;;;5004258;28;20306;-84
2021/08/11 05:17:47;;;;;;;28.60;15.30;;;16.60;98.10;;;;;;5003103;28;20206;-85
2021/08/11 05:20:14;;;;;;;28.47;17.17;;;16.60;98.50;;;;;;5003552;28;20187;-85
2021/08/11 05:22:40;;;;;;;32.43;18.70;;;16.60;98.80;;;;;;4999261;28;20196;-85
2021/08/11 05:25:06;;;;;;;24.30;14.50;;;16.70;98.50;;;;;;4999108;28;20939;-85
2021/08/11 05:27:32;;;;;;;23.00;14.77;;;16.70;98.30;;;;;;4998776;28;20270;-85
2021/08/11 05:29:57;;;;;;;23.47;13.93;;;16.80;98.10;;;;;;4998026;28;20503;-84
2021/08/11 05:32:23;;;;;;;21.23;14.00;;;16.80;98.10;;;;;;4998150;28;20348;-85
2021/08/11 05:34:48;;;;;;;22.53;14.90;;;16.80;98.00;;;;;;4998912;28;20199;-85
2021/08/11 05:37:14;;;;;;;19.93;13.50;;;16.90;98.00;;;;;;4997812;28;20191;-85
2021/08/11 05:39:40;;;;;;;25.07;15.37;;;16.90;98.00;;;;;;4997957;28;20201;-85
2021/08/11 05:42:06;;;;;;;23.77;14.87;;;16.90;97.70;;;;;;4997728;28;20200;-85
2021/08/11 05:44:33;;;;;;;20.80;13.63;;;17.00;97.70;;;;;;5001357;28;20457;-85
2021/08/11 05:47:01;;;;;;;21.43;11.90;;;17.00;97.80;;;;;;5001517;28;20498;-86
2021/08/11 05:49:27;;;;;;;19.43;12.87;;;17.20;97.60;;;;;;5003192;28;20439;-84
2021/08/11 05:51:53;;;;;;;21.20;13.47;;;17.30;97.10;;;;;;5003134;28;20499;-85
2021/08/11 05:54:18;;;;;;;19.03;13.00;;;17.40;96.90;;;;;;5002766;28;20912;-85
2021/08/11 05:56:47;;;;;;;15.90;12.40;;;17.50;96.20;;;;;;5001012;28;20188;-85
2021/08/11 05:59:12;;;;;;;18.23;12.60;;;17.50;95.60;;;;;;5001330;28;20423;-87
2021/08/11 06:01:38;;;;;;;23.10;13.73;;;17.50;95.80;;;;;;5003875;28;20200;-86
2021/08/11 06:04:04;;;;;;;19.20;13.60;;;17.70;95.80;;;;;;4987486;28;20183;-84
2021/08/11 06:06:30;;;;;;;21.70;13.47;;;17.70;95.60;;;;;;5004598;28;20219;-84
2021/08/11 06:08:56;;;;;;;21.63;14.03;;;17.80;95.00;;;;;;5002902;28;20168;-85
2021/08/11 06:11:22;;;;;;;17.67;14.47;;;17.80;94.90;;;;;;5001906;28;20436;-84
2021/08/11 06:13:48;;;;;;;17.97;12.97;;;17.90;95.50;;;;;;5001466;28;20585;-85
2021/08/11 06:16:14;;;;;;;20.60;15.20;;;17.90;94.50;;;;;;5001511;28;20423;-85
2021/08/11 06:18:40;;;;;;;16.33;12.33;;;17.90;94.70;;;;;;5000671;28;20178;-85
2021/08/11 06:21:06;;;;;;;23.40;13.10;;;17.90;94.70;;;;;;4999755;28;20458;-85
2021/08/11 06:23:32;;;;;;;17.83;13.63;;;18.00;94.70;;;;;;5001275;28;20214;-84
2021/08/11 06:25:58;;;;;;;17.10;13.20;;;18.10;94.30;;;;;;5003169;28;20199;-84
2021/08/11 06:28:23;;;;;;;20.20;14.40;;;18.10;94.30;;;;;;5003914;28;20442;-84
2021/08/11 06:30:49;;;;;;;19.40;14.60;;;18.20;93.80;;;;;;5000919;28;20174;-85
2021/08/11 06:33:15;;;;;;;19.00;14.40;;;18.20;93.50;;;;;;5000289;28;20219;-85
2021/08/11 06:35:41;;;;;;;18.03;12.93;;;18.20;93.60;;;;;;5000910;28;20159;-85
2021/08/11 06:38:07;;;;;;;18.30;14.33;;;18.30;93.80;;;;;;5000092;28;20183;-85
2021/08/11 06:40:37;;;;;;;20.53;13.87;;;18.40;93.20;;;;;;5001707;28;20424;-86
2021/08/11 06:43:03;;;;;;;22.70;15.57;;;18.50;93.00;;;;;;5001321;28;20440;-85
2021/08/11 06:45:29;;;;;;;18.00;13.27;;;18.60;92.70;;;;;;5000306;28;20731;-85
2021/08/11 06:47:55;;;;;;;20.27;16.60;;;18.70;92.60;;;;;;4999647;28;20424;-85
2021/08/11 06:50:24;;;;;;;20.60;15.37;;;18.70;92.10;;;;;;5000718;28;20482;-84
2021/08/11 06:52:49;;;;;;;25.50;16.00;;;18.80;91.60;;;;;;5000733;28;20433;-86
2021/08/11 06:55:16;;;;;;;22.20;14.90;;;18.80;91.70;;;;;;4998622;28;20216;-84
2021/08/11 06:57:44;;;;;;;20.73;15.50;;;19.00;91.70;;;;;;4999257;28;20261;-85
2021/08/11 07:00:10;;;;;;;21.10;15.70;;;19.20;91.20;;;;;;4999770;28;20500;-87
2021/08/11 07:02:37;;;;;;;18.17;14.87;;;19.40;91.00;;;;;;4999102;28;20425;-84
2021/08/11 07:05:04;;;;;;;16.77;14.53;;;19.60;90.40;;;;;;5000404;28;20428;-84
2021/08/11 07:07:30;;;;;;;17.77;13.20;;;19.70;89.80;;;;;;5000486;28;20690;-86
2021/08/11 07:09:57;;;;;;;16.87;13.90;;;19.90;89.80;;;;;;4999293;28;20417;-85
2021/08/11 07:12:24;;;;;;;20.80;12.80;;;20.30;88.60;;;;;;4998043;28;20475;-85
2021/08/11 07:14:50;;;;;;;19.93;13.30;;;20.60;87.40;;;;;;5000011;28;20422;-86
2021/08/11 07:17:16;;;;;;;15.33;12.27;;;20.80;83.40;;;;;;4998190;28;20701;-85
2021/08/11 07:19:41;;;;;;;14.70;11.80;;;20.80;82.80;;;;;;4998292;28;20168;-86
2021/08/11 07:22:09;;;;;;;14.87;10.93;;;20.70;83.70;;;;;;4999535;28;20422;-85
2021/08/11 07:24:35;;;;;;;13.30;10.77;;;20.90;85.40;;;;;;5000080;28;20419;-86
2021/08/11 07:27:02;;;;;;;12.53;11.03;;;21.80;83.20;;;;;;4999203;28;20454;-85
2021/08/11 07:29:27;;;;;;;11.43;10.13;;;22.30;76.50;;;;;;4999069;28;20419;-85
2021/08/11 07:31:53;;;;;;;11.67;10.47;;;22.40;76.70;;;;;;4998753;28;20421;-85
2021/08/11 07:34:19;;;;;;;12.00;10.80;;;22.70;75.90;;;;;;5001253;28;20175;-85
2021/08/11 07:36:45;;;;;;;12.73;10.37;;;22.80;72.50;;;;;;5010816;28;20195;-85
2021/08/11 07:39:11;;;;;;;12.40;10.87;;;22.70;73.50;;;;;;5004842;28;20191;-87
2021/08/11 07:41:37;;;;;;;12.57;10.17;;;22.70;73.80;;;;;;5003119;28;20171;-86
2021/08/11 07:44:02;;;;;;;14.97;10.30;;;22.70;73.00;;;;;;4979627;28;20758;-84
2021/08/11 07:46:28;;;;;;;11.60;8.23;;;22.60;73.70;;;;;;4997993;28;20210;-85
2021/08/11 07:48:54;;;;;;;10.70;9.57;;;23.00;75.80;;;;;;5000900;28;20203;-85
2021/08/11 07:51:19;;;;;;;12.73;9.47;;;24.10;71.80;;;;;;5001144;28;20195;-85
2021/08/11 07:53:45;;;;;;;12.20;9.10;;;24.80;64.70;;;;;;4999657;28;20182;-86
2021/08/11 07:56:11;;;;;;;18.23;14.63;;;25.10;64.70;;;;;;5002316;28;20168;-85
2021/08/11 07:58:36;;;;;;;9.63;8.53;;;25.10;63.20;;;;;;5001537;28;20659;-85
2021/08/11 08:01:02;;;;;;;12.40;9.43;;;25.30;62.00;;;;;;4999009;28;20167;-85
2021/08/11 08:03:28;;;;;;;10.30;8.27;;;25.70;60.80;;;;;;4998158;28;20192;-85
2021/08/11 08:05:54;;;;;;;8.57;7.77;;;26.80;58.10;;;;;;4997200;28;20203;-86
2021/08/11 08:08:20;;;;;;;8.43;7.50;;;27.70;55.20;;;;;;5000098;28;20206;-86
2021/08/11 08:10:46;;;;;;;9.23;8.00;;;27.90;54.10;;;;;;4996674;28;20176;-85
2021/08/11 08:13:11;;;;;;;13.50;7.00;;;27.50;53.90;;;;;;5009209;28;20202;-86
2021/08/11 08:15:37;;;;;;;7.23;6.53;;;27.10;55.60;;;;;;5009831;28;20175;-86
2021/08/11 08:18:03;;;;;;;6.27;5.63;;;26.90;56.00;;;;;;5001997;28;20287;-85
2021/08/11 08:20:30;;;;;;;6.97;5.83;;;27.10;55.70;;;;;;5001095;28;20259;-86
2021/08/11 08:22:56;;;;;;;7.13;6.20;;;27.20;55.40;;;;;;4996315;28;20431;-85
2021/08/11 08:25:23;;;;;;;6.73;6.13;;;26.80;56.00;;;;;;4997349;28;20411;-86
2021/08/11 08:27:49;;;;;;;7.47;6.77;;;26.60;56.40;;;;;;5009284;28;20480;-86
2021/08/11 08:30:16;;;;;;;6.87;6.17;;;26.30;56.80;;;;;;5001497;28;20776;-85
2021/08/11 08:32:43;;;;;;;7.00;6.07;;;26.50;57.00;;;;;;5000769;28;20431;-86
2021/08/11 08:35:09;;;;;;;9.70;8.70;;;26.80;56.90;;;;;;5000113;28;20395;-86
2021/08/11 08:37:39;;;;;;;9.47;8.37;;;27.10;54.40;;;;;;4998486;28;20488;-86
2021/08/11 08:40:11;;;;;;;16.33;8.73;;;27.30;54.80;;;;;;4998293;28;21013;-85
2021/08/11 08:42:41;;;;;;;9.73;7.57;;;27.70;54.10;;;;;;5003145;28;20442;-86
2021/08/11 08:45:10;;;;;;;7.90;6.73;;;27.50;54.20;;;;;;5010100;28;20403;-85
2021/08/11 08:47:37;;;;;;;12.40;8.33;;;27.60;55.40;;;;;;5011257;28;20410;-86
2021/08/11 08:50:09;;;;;;;8.93;8.13;;;27.60;54.40;;;;;;5012091;28;20435;-86
2021/08/11 08:52:37;;;;;;;9.47;8.47;;;27.60;53.80;;;;;;5010319;28;20441;-85
2021/08/11 08:55:04;;;;;;;8.37;7.47;;;27.40;54.20;;;;;;5009063;28;20498;-86
2021/08/11 08:57:30;;;;;;;7.33;6.60;;;27.40;54.70;;;;;;5001905;28;20411;-85
2021/08/11 08:59:57;;;;;;;11.37;7.90;;;28.00;54.20;;;;;;4997354;28;20529;-86
2021/08/11 09:02:23;;;;;;;8.50;7.70;;;29.40;51.50;;;;;;4998893;28;20401;-86
2021/08/11 09:04:54;;;;;;;6.67;6.03;;;30.30;49.10;;;;;;4997154;28;20530;-85
2021/08/11 09:10:59;;;;;;;8.53;6.53;;;32.40;45.40;;;;;;5018436;28;20474;-87
2021/08/11 09:14:25;;;;;;;7.30;6.60;;;33.20;43.30;;;;;;5001791;28;20453;-86
2021/08/11 09:17:38;;;;;;;7.47;6.27;;;34.00;41.40;;;;;;4998183;28;20538;-86
2021/08/11 09:20:38;;;;;;;6.40;5.70;;;34.60;39.20;;;;;;5003229;28;20433;-86
2021/08/11 09:23:15;;;;;;;8.13;7.35;;;35.00;37.80;;;;;;4989318;28;20192;-87
2021/08/11 09:26:37;;;;;;;8.15;7.43;;;35.10;38.20;;;;;;5001157;28;20553;-86
2021/08/11 09:29:15;;;;;;;7.80;7.00;;;35.30;36.60;;;;;;4999953;28;20660;-85
2021/08/11 09:32:44;;;;;;;;;;;;;;;;;;;;;
2021/08/11 09:35:44;;;;;;;7.28;6.50;;;35.00;37.10;;;;;;5002880;28;20262;-85
2021/08/11 09:38:14;;;;;;;7.13;6.03;;;35.00;36.40;;;;;;5004857;28;20675;-84
2021/08/11 09:40:41;;;;;;;10.68;9.77;;;34.40;37.80;;;;;;5002722;28;20740;-85
2021/08/11 09:43:09;;;;;;;6.93;5.77;;;33.80;38.60;;;;;;5002955;28;20215;-87
2021/08/11 09:45:51;;;;;;;10.57;6.73;;;32.70;39.90;;;;;;5002004;28;20497;-85
2021/08/11 09:48:19;;;;;;;7.00;6.30;;;31.30;42.50;;;;;;5001341;28;20414;-86
2021/08/11 09:50:47;;;;;;;5.83;5.27;;;29.90;45.10;;;;;;4999640;28;20496;-84
2021/08/11 09:53:15;;;;;;;7.03;6.33;;;28.90;47.10;;;;;;4999917;28;20401;-85
2021/08/11 09:56:08;;;;;;;7.20;6.60;;;28.10;48.90;;;;;;5002284;28;20931;-85
2021/08/11 09:58:43;;;;;;;5.83;5.23;;;27.80;50.00;;;;;;4999974;28;20521;-86
2021/08/11 10:01:13;;;;;;;10.60;5.90;;;27.80;49.80;;;;;;5001594;28;20402;-87
2021/08/11 10:04:00;;;;;;;9.33;5.83;;;28.30;49.60;;;;;;5005434;28;20443;-86
2021/08/11 10:06:34;;;;;;;8.00;5.83;;;28.90;48.70;;;;;;5006108;28;20426;-85
2021/08/11 10:09:24;;;;;;;5.43;4.50;;;29.30;47.00;;;;;;5005799;28;20419;-85
2021/08/11 10:11:58;;;;;;;5.63;4.80;;;29.20;46.80;;;;;;5004220;28;20908;-84
2021/08/11 10:14:34;;;;;;;6.10;4.70;;;29.10;47.60;;;;;;5007667;28;20446;-87
2021/08/11 10:17:01;;;;;;;6.87;4.37;;;29.40;47.00;;;;;;5005590;28;20454;-86
2021/08/11 10:19:32;;;;;;;5.33;3.90;;;30.20;45.60;;;;;;5006374;28;20415;-85
2021/08/11 10:22:01;;;;;;;5.53;4.63;;;31.40;44.00;;;;;;5001329;28;20430;-86
2021/08/11 10:24:28;;;;;;;5.60;4.20;;;32.50;41.60;;;;;;5004387;28;20920;-85
2021/08/11 10:26:56;;;;;;;9.10;6.33;;;33.00;40.40;;;;;;5003236;28;20407;-84
2021/08/11 10:29:23;;;;;;;4.57;4.17;;;33.40;39.40;;;;;;5003211;28;20526;-85
2021/08/11 10:31:49;;;;;;;4.50;3.80;;;33.80;38.70;;;;;;5002433;28;20386;-87
2021/08/11 10:34:17;;;;;;;5.20;4.60;;;34.10;38.30;;;;;;5004592;28;20489;-85
2021/08/11 10:36:44;;;;;;;5.93;3.80;;;33.80;37.40;;;;;;5001957;28;20234;-85
2021/08/11 10:39:10;;;;;;;6.97;4.80;;;32.80;38.90;;;;;;5004683;28;20912;-85
2021/08/11 10:41:37;;;;;;;9.17;8.13;;;32.00;39.80;;;;;;5004527;28;20418;-85
2021/08/11 10:44:04;;;;;;;4.97;4.40;;;31.00;41.60;;;;;;5003115;28;20168;-86
2021/08/11 10:46:40;;;;;;;4.53;4.13;;;30.20;44.00;;;;;;5001774;28;20887;-86
2021/08/11 10:49:07;;;;;;;4.37;3.97;;;30.00;44.70;;;;;;5000484;28;20414;-84
2021/08/11 10:51:42;;;;;;;5.17;4.13;;;30.40;44.60;;;;;;5001684;28;20493;-85
2021/08/11 10:54:08;;;;;;;5.03;4.47;;;31.10;43.30;;;;;;5002953;28;20781;-86
2021/08/11 10:56:45;;;;;;;5.17;4.30;;;31.40;42.60;;;;;;5003357;28;20466;-85
2021/08/11 10:59:22;;;;;;;7.70;6.37;;;31.20;42.30;;;;;;5003239;28;20474;-87
2021/08/11 11:01:52;;;;;;;5.93;4.10;;;30.60;43.50;;;;;;5015439;28;21156;-86
2021/08/11 11:04:38;;;;;;;6.57;5.73;;;30.20;44.40;;;;;;5016441;28;20427;-86
2021/08/11 11:07:13;;;;;;;5.83;3.87;;;29.60;45.10;;;;;;5017044;28;20415;-86
2021/08/11 11:09:40;;;;;;;5.10;3.80;;;29.00;47.00;;;;;;5015416;28;20417;-87
2021/08/11 11:12:18;;;;;;;7.37;4.10;;;28.60;47.10;;;;;;5006835;28;20442;-85
2021/08/11 11:14:48;;;;;;;4.83;4.20;;;28.20;47.60;;;;;;5007002;28;20468;-83
2021/08/11 11:17:15;;;;;;;6.57;4.40;;;27.90;47.90;;;;;;5013319;28;20514;-86
2021/08/11 11:20:03;;;;;;;7.20;4.10;;;27.60;48.50;;;;;;4997166;28;20511;-88
2021/08/11 11:22:37;;;;;;;4.10;3.57;;;27.20;49.40;;;;;;5013941;28;20419;-85
2021/08/11 11:25:08;;;;;;;14.97;11.87;;;27.00;49.60;;;;;;5012628;28;20414;-86
2021/08/11 11:27:43;;;;;;;6.90;5.70;;;26.80;50.60;;;;;;5012667;28;20407;-86
2021/08/11 11:30:14;;;;;;;8.23;5.00;;;26.60;50.60;;;;;;5006468;28;20595;-86
2021/08/11 11:32:40;;;;;;;5.03;4.27;;;26.50;50.80;;;;;;5007648;28;20427;-87
2021/08/11 11:35:19;;;;;;;7.70;4.40;;;26.60;50.40;;;;;;5012872;28;20493;-86
2021/08/11 11:38:05;;;;;;;4.40;3.80;;;26.70;49.70;;;;;;5014682;28;20498;-85
2021/08/11 11:40:31;;;;;;;4.40;3.00;;;26.70;50.30;;;;;;5012025;28;20422;-86
2021/08/11 11:43:26;;;;;;;4.67;3.83;;;26.70;50.50;;;;;;5008192;28;20506;-85
2021/08/11 11:45:52;;;;;;;5.20;4.27;;;26.60;49.40;;;;;;5009697;28;20196;-86
2021/08/11 11:48:18;;;;;;;5.37;2.80;;;26.70;49.30;;;;;;5006797;28;20465;-86
2021/08/11 11:50:47;;;;;;;3.40;3.10;;;26.80;49.40;;;;;;5011321;28;20422;-85
2021/08/11 11:53:24;;;;;;;3.70;3.40;;;26.90;49.60;;;;;;5012931;28;20442;-86
2021/08/11 11:55:50;;;;;;;5.13;2.97;;;27.20;49.40;;;;;;5013666;28;20394;-85
2021/08/11 11:58:25;;;;;;;3.00;2.57;;;27.20;48.70;;;;;;5011541;28;20514;-85
2021/08/11 12:01:17;;;;;;;6.13;3.10;;;27.20;48.90;;;;;;5005893;28;20516;-85
2021/08/11 12:03:51;;;;;;;6.50;2.97;;;27.10;49.20;;;;;;5004167;28;20840;-84
2021/08/11 12:06:34;;;;;;;6.27;3.30;;;27.00;49.70;;;;;;5004842;28;20952;-84
2021/08/11 12:09:01;;;;;;;3.90;2.63;;;26.80;49.60;;;;;;5002489;28;20446;-84
2021/08/11 12:11:30;;;;;;;5.27;3.60;;;26.70;50.10;;;;;;5002755;28;20418;-85
2021/08/11 12:13:56;;;;;;;4.30;3.27;;;26.60;50.10;;;;;;5002563;28;20454;-85
2021/08/11 12:16:23;;;;;;;17.00;8.73;;;26.70;50.00;;;;;;5003287;28;20896;-86
2021/08/11 12:18:50;;;;;;;4.60;3.10;;;26.70;50.20;;;;;;5003598;28;20171;-84
2021/08/11 12:21:18;;;;;;;9.70;6.60;;;26.60;50.40;;;;;;5003323;28;20407;-85
2021/08/11 12:23:45;;;;;;;3.70;3.13;;;26.60;49.90;;;;;;5000888;28;20992;-85
2021/08/11 12:26:14;;;;;;;5.60;3.93;;;26.40;49.60;;;;;;5002470;28;20470;-86
2021/08/11 12:28:50;;;;;;;3.60;3.27;;;26.30;50.50;;;;;;5001073;28;20414;-86
2021/08/11 12:31:25;;;;;;;5.80;4.20;;;26.40;50.90;;;;;;5004692;28;20411;-85
2021/08/11 12:33:54;;;;;;;4.33;2.97;;;26.70;50.50;;;;;;4987412;28;20966;-87
2021/08/11 12:36:21;;;;;;;4.77;3.03;;;26.60;49.60;;;;;;5002925;28;20418;-85
2021/08/11 12:39:00;;;;;;;5.23;3.60;;;26.50;50.50;;;;;;5004372;28;20426;-86
2021/08/11 12:41:27;;;;;;;4.93;3.80;;;26.50;50.50;;;;;;5005906;28;20426;-85
2021/08/11 12:43:56;;;;;;;6.77;4.60;;;26.60;50.90;;;;;;5002732;28;20449;-85
2021/08/11 12:46:44;;;;;;;3.93;3.13;;;26.70;50.70;;;;;;5001038;28;20461;-86
2021/08/11 12:49:12;;;;;;;4.80;3.53;;;26.80;50.20;;;;;;5002314;28;20462;-86
2021/08/11 12:51:38;;;;;;;9.57;8.57;;;26.90;49.50;;;;;;5002747;28;20418;-86